Time;durP1;ratioP1;P1;durP2;ratioP2;P2;SDS_P1;SDS_P2;PMS_P1;PMS_P2;Temp;Humidity;BMP_temperature;BMP_pressure;BME280_temperature;BME280_humidity;BME280_pressure;Samples;Min_cycle;Max_cycle;Signal;HPM_P1;HPM_P2
2021/12/16 00:01:53;;;;;;;16.77;7.78;;;;;;;-0.79;63.15;94683.53;4958282;28;20157;-75
2021/12/16 00:09:53;;;;;;;14.18;6.20;;;;;;;-0.55;62.69;94708.72;4955821;28;20540;-75
2021/12/16 00:34:13;;;;;;;10.57;6.33;;;;;;;-1.16;64.83;94732.38;4959654;28;20591;-74
2021/12/16 00:36:41;;;;;;;14.10;6.65;;;;;;;-1.28;65.58;94724.50;4955488;28;20280;-74
2021/12/16 00:39:16;;;;;;;14.25;5.90;;;;;;;-1.05;65.11;94739.47;4960204;28;20659;-74
2021/12/16 00:41:44;;;;;;;;;;;;;;;-1.10;65.05;94732.31;4957111;28;20125;-74
2021/12/16 00:54:37;;;;;;;10.35;6.43;;;;;;;-1.32;64.79;94692.00;4954614;28;20060;-74
2021/12/16 00:57:12;;;;;;;13.02;7.47;;;;;;;-1.04;64.86;94736.66;4960511;28;20031;-75
2021/12/16 00:59:41;;;;;;;14.40;6.43;;;;;;;-1.10;64.50;94721.88;4939337;28;20043;-74
2021/12/16 01:40:02;;;;;;;10.48;5.65;;;;;;;-1.20;63.76;94705.91;4955221;28;20047;-74
2021/12/16 01:47:26;;;;;;;7.80;4.75;;;;;;;-1.12;63.85;94692.56;4958246;28;20465;-74
2021/12/16 01:50:08;;;;;;;11.68;5.32;;;;;;;-1.15;64.13;94698.22;4959285;28;20474;-74
2021/12/16 01:55:11;;;;;;;12.57;5.47;;;;;;;-1.12;63.93;94700.38;4958948;28;20019;-74
2021/12/16 01:57:42;;;;;;;10.43;6.47;;;;;;;-1.05;63.92;94710.75;4941504;28;20101;-75
2021/12/16 02:00:26;;;;;;;8.85;5.78;;;;;;;-1.07;64.12;94695.31;4960045;28;20071;-74
2021/12/16 02:02:58;;;;;;;9.70;3.92;;;;;;;-1.20;63.99;94668.56;4959889;28;20035;-74
2021/12/16 02:10:39;;;;;;;8.98;4.72;;;;;;;-0.91;64.19;94690.50;4961140;28;20474;-74
2021/12/16 02:13:30;;;;;;;10.23;5.57;;;;;;;-1.00;64.39;94690.81;4943998;28;20083;-75
2021/12/16 02:31:00;;;;;;;8.30;6.38;;;;;;;-1.28;65.79;94687.16;4958110;28;20074;-74
2021/12/16 02:32:53;;;;;;;7.22;4.93;;;;;;;-1.31;65.88;94677.91;4958936;28;20039;-75
2021/12/16 02:35:31;;;;;;;12.13;5.85;;;;;;;-1.16;65.75;94691.41;4950538;28;20089;-74
2021/12/16 02:37:59;;;;;;;13.80;5.28;;;;;;;-1.00;65.46;94690.81;4959796;28;20074;-76
2021/12/16 02:40:25;;;;;;;9.60;5.00;;;;;;;-1.03;65.10;94678.22;4956882;28;20416;-73
2021/12/16 02:48:35;;;;;;;7.47;5.18;;;;;;;-0.77;64.19;94697.16;4963562;28;20009;-74
2021/12/16 02:51:25;;;;;;;11.15;6.50;;;;;;;-0.76;64.23;94689.09;4958963;28;20043;-74
2021/12/16 02:53:56;;;;;;;7.93;5.22;;;;;;;-0.74;63.93;94679.25;4959678;28;20070;-74
2021/12/16 02:56:21;;;;;;;10.38;5.65;;;;;;;-0.51;63.27;94678.50;4961620;28;20736;-73
2021/12/16 02:58:53;;;;;;;10.70;5.95;;;;;;;-0.47;62.82;94689.31;4962856;28;20022;-74
2021/12/16 03:01:25;;;;;;;9.60;4.95;;;;;;;-0.48;62.78;94691.13;4961600;28;20027;-74
2021/12/16 03:03:52;;;;;;;10.88;5.10;;;;;;;-0.54;62.80;94679.78;4959580;28;20054;-74
2021/12/16 03:06:18;;;;;;;11.30;6.00;;;;;;;-0.46;62.40;94681.25;4963936;28;20035;-74
2021/12/16 03:08:44;;;;;;;13.30;6.63;;;;;;;-0.36;62.41;94691.97;4959902;28;20043;-73
2021/12/16 03:19:24;;;;;;;8.18;5.45;;;;;;;-0.46;62.49;94670.81;4958063;28;20113;-74
2021/12/16 03:21:51;;;;;;;9.65;4.55;;;;;;;-0.40;62.95;94696.06;4959997;28;20034;-74
2021/12/16 03:40:02;;;;;;;13.95;5.38;;;;;;;-0.34;62.42;94678.69;4960409;28;20041;-74
2021/12/16 03:42:30;;;;;;;12.23;5.68;;;;;;;-0.04;61.89;94699.53;4957409;28;20046;-74
2021/12/16 03:45:05;;;;;;;8.43;4.45;;;;;;;0.03;61.92;94705.44;4961006;28;20049;-74
2021/12/16 03:47:45;;;;;;;9.68;4.35;;;;;;;-0.18;61.88;94675.41;4962693;28;20568;-74
2021/12/16 03:50:19;;;;;;;11.00;6.13;;;;;;;0.02;62.02;94701.22;4960498;28;20054;-74
2021/12/16 03:52:47;;;;;;;10.32;5.82;;;;;;;-0.22;61.64;94671.66;4963224;28;20038;-74
2021/12/16 03:55:13;;;;;;;8.38;5.35;;;;;;;-0.09;62.15;94687.91;4958747;28;20118;-74
2021/12/16 03:57:40;;;;;;;9.38;5.15;;;;;;;0.04;61.85;94702.63;4961503;28;20706;-74
2021/12/16 04:00:14;;;;;;;9.25;5.40;;;;;;;0.07;61.67;94698.75;4959778;28;20046;-74
2021/12/16 04:02:40;;;;;;;13.07;6.43;;;;;;;-0.07;61.69;94685.88;4962443;28;20038;-74
2021/12/16 04:05:08;;;;;;;10.48;5.18;;;;;;;-0.04;62.02;94696.94;4959072;28;20039;-74
2021/12/16 04:07:36;;;;;;;9.10;5.47;;;;;;;-0.03;61.86;94698.50;4940540;28;20042;-74
2021/12/16 04:10:06;;;;;;;9.07;5.25;;;;;;;-0.28;62.76;94696.06;4961268;28;20035;-74
2021/12/16 04:12:31;;;;;;;8.18;4.70;;;;;;;-0.42;63.71;94695.47;4958391;28;20051;-74
2021/12/16 04:14:59;;;;;;;8.80;5.88;;;;;;;-0.21;63.50;94687.13;4960969;28;20751;-75
2021/12/16 04:17:28;;;;;;;12.23;6.35;;;;;;;-0.36;63.45;94678.09;4958209;28;20406;-74
2021/12/16 04:19:54;;;;;;;10.63;5.50;;;;;;;-0.48;63.80;94667.59;4960493;28;20031;-74
2021/12/16 04:22:30;;;;;;;9.15;5.75;;;;;;;-0.47;64.27;94679.66;4959890;28;20413;-74
2021/12/16 04:24:57;;;;;;;11.35;5.90;;;;;;;-0.39;64.22;94687.19;4960429;28;20043;-74
2021/12/16 04:27:22;;;;;;;15.15;6.85;;;;;;;-0.47;64.31;94663.97;4957831;28;20034;-74
2021/12/16 04:29:48;;;;;;;13.60;6.30;;;;;;;-0.44;64.16;94660.13;4959531;28;20057;-74
2021/12/16 04:32:15;;;;;;;8.48;5.47;;;;;;;-0.34;64.26;94663.81;4957582;28;20380;-74
2021/12/16 04:34:41;;;;;;;8.02;5.25;;;;;;;-0.40;63.79;94654.22;4961888;28;20023;-73
2021/12/16 04:37:07;;;;;;;8.95;4.70;;;;;;;-0.32;64.02;94661.75;4961567;28;20494;-74
2021/12/16 04:39:35;;;;;;;10.63;6.03;;;;;;;-0.30;63.98;94664.94;4959799;28;20041;-74
2021/12/16 04:42:02;;;;;;;9.52;4.78;;;;;;;-0.54;65.04;94678.97;4960798;28;20531;-74
2021/12/16 04:44:28;;;;;;;9.30;4.65;;;;;;;-0.64;65.76;94666.44;4958462;28;20042;-73
2021/12/16 04:46:56;;;;;;;8.95;4.90;;;;;;;-0.74;66.51;94670.59;4955969;28;20039;-74
2021/12/16 04:49:23;;;;;;;10.65;5.63;;;;;;;-0.59;66.62;94681.44;4958282;28;20037;-74
2021/12/16 04:51:52;;;;;;;9.35;4.78;;;;;;;-0.59;66.51;94687.47;4956446;28;20043;-74
2021/12/16 04:54:19;;;;;;;8.80;5.63;;;;;;;-0.84;67.12;94655.47;4959029;28;20054;-75
2021/12/16 04:56:46;;;;;;;9.02;4.85;;;;;;;-0.64;67.33;94678.72;4957766;28;20104;-75
2021/12/16 04:59:14;;;;;;;12.57;6.03;;;;;;;-0.58;67.00;94672.59;4958590;28;20640;-74
2021/12/16 05:01:43;;;;;;;9.40;5.20;;;;;;;-0.53;66.49;94680.53;4959132;28;20027;-74
2021/12/16 05:04:09;;;;;;;6.18;4.65;;;;;;;-0.69;66.93;94689.81;4960862;28;20545;-74
2021/12/16 05:06:36;;;;;;;11.07;6.07;;;;;;;-0.92;67.25;94660.22;4940553;28;20130;-74
2021/12/16 05:09:04;;;;;;;9.73;4.55;;;;;;;-0.67;67.23;94673.91;4960773;28;20527;-74
2021/12/16 05:11:33;;;;;;;10.45;5.65;;;;;;;-0.57;66.90;94682.81;4960197;28;20093;-74
2021/12/16 05:13:59;;;;;;;11.50;5.65;;;;;;;-0.61;66.92;94670.41;4960632;28;20181;-74
2021/12/16 05:16:24;;;;;;;8.95;5.63;;;;;;;-0.57;67.00;94674.16;4959106;28;20466;-74
2021/12/16 05:18:54;;;;;;;8.43;5.38;;;;;;;-0.71;67.63;94688.44;4959302;28;20043;-73
2021/12/16 05:21:47;;;;;;;12.93;5.55;;;;;;;-0.65;67.55;94680.53;4958530;28;20034;-74
2021/12/16 05:24:25;;;;;;;12.52;6.18;;;;;;;-0.67;68.11;94679.94;4959925;28;20042;-74
2021/12/16 05:26:57;;;;;;;8.07;4.88;;;;;;;-0.70;67.57;94656.06;4959351;28;20331;-74
2021/12/16 05:29:24;;;;;;;9.20;5.88;;;;;;;-0.44;67.37;94678.44;4942721;28;20037;-74
2021/12/16 05:31:50;;;;;;;10.52;5.78;;;;;;;-0.34;66.76;94679.47;4958383;28;20572;-74
2021/12/16 05:34:16;;;;;;;16.15;6.20;;;;;;;-0.41;66.63;94684.00;4959107;28;20566;-74
2021/12/16 05:36:42;;;;;;;8.50;5.15;;;;;;;-0.47;66.98;94673.63;4958983;28;20039;-75
2021/12/16 05:39:10;;;;;;;9.85;5.55;;;;;;;-0.49;66.85;94666.03;4958806;28;20035;-74
2021/12/16 05:41:36;;;;;;;12.85;6.07;;;;;;;-0.36;66.79;94681.50;4959772;28;20043;-74
2021/12/16 05:44:01;;;;;;;13.75;6.85;;;;;;;-0.52;67.01;94658.63;4941705;28;20145;-75
2021/12/16 05:46:27;;;;;;;14.48;8.40;;;;;;;-0.29;66.85;94678.81;4958834;28;20473;-74
2021/12/16 05:48:55;;;;;;;13.40;6.65;;;;;;;-0.40;67.07;94669.91;4941133;28;20489;-74
2021/12/16 05:51:24;;;;;;;10.65;6.50;;;;;;;-0.38;66.74;94661.81;4957590;28;20031;-73
2021/12/16 05:53:51;;;;;;;11.65;6.65;;;;;;;-0.23;66.59;94691.75;4957907;28;20066;-77
2021/12/16 05:56:17;;;;;;;10.93;5.78;;;;;;;-0.29;66.46;94682.22;4958886;28;20565;-75
2021/12/16 05:58:44;;;;;;;10.50;5.15;;;;;;;-0.55;66.90;94682.59;4957478;28;20494;-73
2021/12/16 06:01:15;;;;;;;9.75;5.65;;;;;;;-0.51;66.94;94678.50;4941037;28;20352;-74
2021/12/16 06:03:43;;;;;;;10.40;6.40;;;;;;;-0.57;67.46;94684.63;4955731;28;20043;-74
2021/12/16 06:06:09;;;;;;;11.05;5.18;;;;;;;-0.56;67.65;94684.41;4957539;28;20516;-74
2021/12/16 06:08:35;;;;;;;11.48;6.53;;;;;;;-0.68;67.71;94672.34;4955843;28;20046;-74
2021/12/16 06:11:16;;;;;;;8.30;6.28;;;;;;;-0.70;68.38;94684.81;4954930;28;20833;-74
2021/12/16 06:13:58;;;;;;;14.48;6.53;;;;;;;-0.80;67.66;94663.66;4957798;28;20019;-74
2021/12/16 06:27:25;;;;;;;9.15;5.47;;;;;;;-1.00;67.04;94643.00;4961406;28;20104;-74
2021/12/16 06:29:51;;;;;;;7.22;5.70;;;;;;;-0.82;67.28;94650.81;4959026;28;20442;-74
2021/12/16 06:32:17;;;;;;;8.98;5.15;;;;;;;-0.83;67.36;94658.88;4957130;28;20031;-74
2021/12/16 06:34:43;;;;;;;10.48;5.10;;;;;;;-0.58;66.29;94662.16;4958463;28;20027;-74
2021/12/16 06:37:09;;;;;;;6.70;5.00;;;;;;;-0.73;66.17;94651.31;4958730;28;20057;-74
2021/12/16 06:39:35;;;;;;;9.48;4.95;;;;;;;-0.65;65.93;94659.63;4957378;28;20050;-74
2021/12/16 06:42:04;;;;;;;6.50;4.47;;;;;;;-0.64;66.52;94663.03;4960088;28;21491;-75
2021/12/16 06:44:31;;;;;;;6.13;4.75;;;;;;;-0.67;65.79;94663.47;4961009;28;20070;-74
2021/12/16 06:47:06;;;;;;;8.32;5.00;;;;;;;-0.65;66.13;94670.06;4960761;28;20050;-74
2021/12/16 06:49:34;;;;;;;8.95;6.05;;;;;;;-0.78;65.86;94657.19;4959807;28;20041;-74
2021/12/16 06:52:03;;;;;;;7.13;4.13;;;;;;;-0.75;65.95;94676.84;4961804;28;20142;-75
2021/12/16 06:54:35;;;;;;;9.18;4.72;;;;;;;-0.79;66.00;94650.38;4958970;28;20031;-74
2021/12/16 06:59:35;;;;;;;7.30;4.65;;;;;;;-0.80;65.83;94658.44;4959898;28;20141;-74
2021/12/16 07:02:12;;;;;;;12.93;5.30;;;;;;;-0.67;66.21;94673.91;4958447;28;20046;-74
2021/12/16 07:04:38;;;;;;;7.35;5.00;;;;;;;-0.49;66.05;94680.91;4945072;28;20098;-74
2021/12/16 07:07:07;;;;;;;12.60;6.18;;;;;;;-0.49;65.73;94650.34;4960756;28;20042;-74
2021/12/16 07:09:33;;;;;;;5.40;4.25;;;;;;;-0.55;65.00;94672.16;4960246;28;20518;-75
2021/12/16 07:12:00;;;;;;;6.40;5.05;;;;;;;-0.46;65.31;94665.56;4959599;28;20039;-75
2021/12/16 07:14:39;;;;;;;7.90;5.30;;;;;;;-0.33;64.84;94681.06;4958827;28;20043;-74
2021/12/16 07:17:08;;;;;;;10.27;5.45;;;;;;;-0.44;65.09;94681.84;4956687;28;20524;-74
2021/12/16 07:19:35;;;;;;;6.78;4.43;;;;;;;-0.44;65.34;94662.75;4958224;28;20813;-74
2021/12/16 07:22:02;;;;;;;6.70;4.70;;;;;;;-0.45;64.64;94661.94;4957751;28;20444;-75
2021/12/16 07:24:27;;;;;;;5.68;4.03;;;;;;;-0.43;64.62;94672.97;4934814;28;20066;-74
2021/12/16 07:26:53;;;;;;;8.00;4.43;;;;;;;-0.44;64.28;94652.28;4956407;28;20126;-75
2021/12/16 07:29:18;;;;;;;9.68;4.15;;;;;;;-0.28;63.61;94686.41;4956992;28;20544;-74
2021/12/16 07:31:44;;;;;;;6.35;4.60;;;;;;;-0.28;63.53;94683.00;4956331;28;20101;-75
2021/12/16 07:34:11;;;;;;;7.28;4.15;;;;;;;-0.43;63.31;94685.25;4956841;28;20034;-75
2021/12/16 07:36:40;;;;;;;9.15;4.28;;;;;;;-0.47;63.65;94657.94;4953942;28;21913;-74
2021/12/16 07:39:08;;;;;;;7.07;4.03;;;;;;;-0.29;63.03;94661.31;4948066;28;20488;-75
2021/12/16 07:41:35;;;;;;;6.20;4.97;;;;;;;-0.51;63.21;94636.69;4950664;28;22189;-75
2021/12/16 07:44:10;;;;;;;8.13;4.75;;;;;;;-0.14;62.93;94659.03;4959976;28;20148;-74
2021/12/16 07:46:53;;;;;;;4.97;3.22;;;;;;;0.04;62.35;94686.13;4957489;28;20031;-75
2021/12/16 07:49:30;;;;;;;5.32;3.88;;;;;;;0.11;61.87;94692.03;4938769;28;20035;-75
2021/12/16 07:51:58;;;;;;;5.20;3.47;;;;;;;0.13;61.22;94690.78;4956034;28;20400;-74
2021/12/16 07:54:24;;;;;;;5.70;3.50;;;;;;;0.08;60.97;94692.50;4952645;28;20165;-75
2021/12/16 07:56:54;;;;;;;5.90;3.80;;;;;;;0.02;60.58;94677.69;4953666;28;20034;-75
2021/12/16 07:59:20;;;;;;;4.43;4.00;;;;;;;0.10;60.84;94706.16;4954893;28;20386;-74
2021/12/16 08:01:46;;;;;;;4.80;3.72;;;;;;;-0.05;61.12;94682.25;4950396;28;20033;-74
2021/12/16 08:04:20;;;;;;;7.25;4.38;;;;;;;-0.01;60.96;94657.22;4959248;28;20383;-74
2021/12/16 08:06:48;;;;;;;4.47;3.20;;;;;;;0.21;60.44;94689.66;4952586;28;20035;-75
2021/12/16 08:09:14;;;;;;;6.03;3.58;;;;;;;0.39;60.25;94704.47;4954357;28;20135;-75
2021/12/16 08:11:41;;;;;;;5.60;3.35;;;;;;;0.42;59.98;94689.09;4954062;28;20049;-74
2021/12/16 08:14:07;;;;;;;5.78;3.47;;;;;;;0.18;60.46;94692.72;4955093;28;20129;-74
2021/12/16 08:16:34;;;;;;;4.07;3.35;;;;;;;0.30;60.83;94702.16;4956896;28;20031;-75
2021/12/16 08:19:00;;;;;;;4.32;3.00;;;;;;;0.51;60.84;94703.41;4959962;28;20057;-74
2021/12/16 08:21:29;;;;;;;5.85;3.85;;;;;;;0.34;60.18;94650.19;4958053;28;20039;-74
2021/12/16 08:23:55;;;;;;;5.13;3.40;;;;;;;0.80;59.90;94702.47;4939003;28;20196;-75
2021/12/16 08:26:21;;;;;;;5.63;4.35;;;;;;;0.58;59.54;94664.84;4956828;28;20038;-76
2021/12/16 08:28:47;;;;;;;4.18;3.38;;;;;;;0.68;59.12;94665.06;4957135;28;20545;-74
2021/12/16 08:31:13;;;;;;;3.58;3.20;;;;;;;0.82;58.93;94693.59;4943036;28;20065;-74
2021/12/16 08:33:39;;;;;;;4.88;4.30;;;;;;;0.68;58.76;94661.63;4936766;28;20039;-74
2021/12/16 08:36:06;;;;;;;4.07;3.05;;;;;;;0.55;58.98;94667.91;4955123;28;20031;-75
2021/12/16 08:38:33;;;;;;;5.03;2.92;;;;;;;0.79;59.55;94697.47;4957838;28;20047;-75
2021/12/16 08:41:07;;;;;;;5.05;3.10;;;;;;;0.49;59.11;94678.50;4955314;28;20402;-75
2021/12/16 08:43:33;;;;;;;4.47;2.60;;;;;;;0.57;59.39;94706.94;4954198;28;20034;-74
2021/12/16 08:45:59;;;;;;;5.10;2.90;;;;;;;0.47;59.24;94685.78;4957357;28;20034;-75
2021/12/16 08:48:26;;;;;;;9.10;4.05;;;;;;;0.32;59.97;94670.53;4954059;28;20447;-75
2021/12/16 08:50:52;;;;;;;4.90;4.15;;;;;;;0.62;59.90;94694.75;4958233;28;20437;-74
2021/12/16 08:53:20;;;;;;;6.50;4.18;;;;;;;0.53;59.96;94666.56;4958447;28;20647;-73
2021/12/16 08:55:49;;;;;;;7.47;5.63;;;;;;;0.61;59.64;94681.91;4959775;28;20453;-74
2021/12/16 08:58:15;;;;;;;6.63;5.15;;;;;;;0.59;59.63;94679.53;4960096;28;20041;-75
2021/12/16 09:00:45;;;;;;;5.07;4.53;;;;;;;0.62;59.44;94668.59;4958217;28;20368;-74
2021/12/16 09:03:11;;;;;;;5.47;3.97;;;;;;;0.64;59.44;94660.50;4960656;28;20133;-74
2021/12/16 09:05:37;;;;;;;7.00;4.07;;;;;;;0.54;59.73;94640.16;4959536;28;20038;-74
2021/12/16 09:08:05;;;;;;;4.88;2.80;;;;;;;0.80;58.96;94665.00;4961000;28;20042;-74
2021/12/16 09:10:35;;;;;;;4.25;3.13;;;;;;;0.78;59.13;94672.31;4957605;28;20420;-75
2021/12/16 09:13:05;;;;;;;5.57;3.17;;;;;;;0.60;59.24;94644.44;4962773;28;20026;-75
2021/12/16 09:15:50;;;;;;;6.05;3.33;;;;;;;0.68;59.36;94662.44;4958776;28;20043;-74
2021/12/16 09:18:17;;;;;;;4.70;3.58;;;;;;;0.49;59.04;94631.41;4957998;28;20039;-74
2021/12/16 09:20:43;;;;;;;3.50;3.00;;;;;;;0.43;59.25;94629.69;4939371;28;20027;-74
2021/12/16 09:23:11;;;;;;;3.63;2.97;;;;;;;0.35;59.41;94641.28;4957085;28;20472;-74
2021/12/16 09:25:40;;;;;;;4.18;3.22;;;;;;;0.39;59.32;94625.94;4957467;28;20038;-74
2021/12/16 09:28:06;;;;;;;4.50;3.17;;;;;;;0.69;59.02;94652.75;4959295;28;20022;-74
2021/12/16 09:30:34;;;;;;;6.43;4.72;;;;;;;0.88;59.58;94662.06;4950643;28;20042;-75
2021/12/16 09:33:02;;;;;;;3.70;3.05;;;;;;;0.94;58.72;94642.75;4958841;28;20031;-74
2021/12/16 09:35:34;;;;;;;6.32;4.03;;;;;;;0.96;58.63;94653.03;4936095;28;20027;-74
2021/12/16 09:38:01;;;;;;;4.85;4.25;;;;;;;0.93;58.46;94654.28;4955859;28;20047;-74
2021/12/16 09:40:28;;;;;;;4.53;3.38;;;;;;;0.85;57.86;94646.00;4958030;28;20096;-74
2021/12/16 09:42:54;;;;;;;6.63;4.50;;;;;;;0.81;58.21;94640.44;4948724;28;20212;-73
2021/12/16 09:45:21;;;;;;;5.47;4.70;;;;;;;0.90;58.37;94646.09;4960014;28;20552;-74
2021/12/16 09:47:47;;;;;;;3.97;3.28;;;;;;;0.90;58.03;94651.31;4958987;28;20043;-75
2021/12/16 09:50:16;;;;;;;7.15;3.80;;;;;;;0.78;58.09;94633.84;4957978;28;20521;-74
2021/12/16 09:52:42;;;;;;;3.22;2.88;;;;;;;0.72;58.80;94628.72;4960443;28;20034;-75
2021/12/16 09:55:09;;;;;;;4.45;3.67;;;;;;;0.89;58.77;94634.03;4959376;28;20094;-76
2021/12/16 09:57:36;;;;;;;3.65;3.10;;;;;;;0.70;58.39;94623.72;4945439;28;20038;-74
2021/12/16 10:00:09;;;;;;;3.42;2.95;;;;;;;0.89;57.85;94632.19;4945216;28;20042;-75
2021/12/16 10:02:35;;;;;;;4.80;3.22;;;;;;;0.88;58.08;94632.44;4942554;28;20063;-75
2021/12/16 10:05:01;;;;;;;8.25;3.72;;;;;;;0.92;58.84;94623.09;4963660;28;20765;-75
2021/12/16 10:07:32;;;;;;;7.43;3.80;;;;;;;0.89;58.79;94605.22;4965498;28;20789;-75
2021/12/16 10:09:59;;;;;;;6.38;3.42;;;;;;;0.98;58.70;94603.81;4962849;28;20304;-75
2021/12/16 10:12:29;;;;;;;6.70;4.00;;;;;;;0.99;58.46;94584.44;4962780;28;20042;-76
2021/12/16 10:17:27;;;;;;;7.18;4.22;;;;;;;1.37;57.43;94621.31;4961581;28;20101;-74
2021/12/16 10:19:55;;;;;;;4.82;4.35;;;;;;;1.35;57.31;94610.25;4964250;28;20445;-75
2021/12/16 10:22:32;;;;;;;5.82;3.35;;;;;;;1.36;57.26;94601.38;4964833;28;20480;-74
2021/12/16 10:25:17;;;;;;;7.25;4.28;;;;;;;1.39;57.38;94585.16;4963928;28;20109;-74
2021/12/16 10:28:16;;;;;;;4.18;3.78;;;;;;;1.22;57.49;94569.44;4961408;28;20062;-75
2021/12/16 10:30:54;;;;;;;6.07;3.65;;;;;;;1.46;57.42;94590.25;4962769;28;20049;-74
2021/12/16 10:33:45;;;;;;;4.90;2.95;;;;;;;1.32;57.50;94560.16;4962018;28;20039;-75
2021/12/16 10:36:15;;;;;;;8.55;3.65;;;;;;;1.70;57.18;94589.06;4960836;28;20510;-75
2021/12/16 10:38:49;;;;;;;10.95;3.78;;;;;;;1.76;56.39;94579.47;4962596;28;20101;-75
2021/12/16 10:41:23;;;;;;;6.38;3.00;;;;;;;1.75;56.43;94562.94;4962873;28;20075;-75
2021/12/16 10:44:13;;;;;;;4.05;3.53;;;;;;;1.80;56.63;94570.06;4962736;28;20122;-75
2021/12/16 10:46:43;;;;;;;3.58;2.42;;;;;;;1.84;56.36;94571.19;4963398;28;20105;-75
2021/12/16 10:49:21;;;;;;;4.07;3.30;;;;;;;1.72;56.57;94560.00;4964551;28;20497;-74
2021/12/16 10:51:55;;;;;;;5.95;3.97;;;;;;;1.79;56.67;94571.91;4962730;28;20050;-75
2021/12/16 10:54:27;;;;;;;4.43;2.97;;;;;;;1.73;57.21;94574.69;4964834;28;21384;-75
2021/12/16 10:56:58;;;;;;;4.68;3.08;;;;;;;1.86;57.44;94575.16;4962993;28;20320;-75
2021/12/16 10:59:41;;;;;;;6.93;3.85;;;;;;;1.96;57.75;94569.31;4961394;28;20034;-75
2021/12/16 11:02:10;;;;;;;8.63;4.05;;;;;;;2.06;56.67;94572.03;4962491;28;20046;-76
2021/12/16 11:05:12;;;;;;;4.93;3.42;;;;;;;2.09;56.79;94580.25;4967724;28;20526;-75
2021/12/16 11:07:47;;;;;;;4.75;2.90;;;;;;;2.04;56.67;94564.44;4962713;28;20081;-75
2021/12/16 11:10:19;;;;;;;4.72;3.58;;;;;;;1.66;57.02;94528.44;4960361;28;20027;-74
2021/12/16 11:12:49;;;;;;;5.03;4.18;;;;;;;1.89;57.32;94579.16;4963540;28;20050;-74
2021/12/16 11:15:41;;;;;;;6.10;3.75;;;;;;;1.61;57.70;94559.03;4961600;28;20565;-74
2021/12/16 11:18:14;;;;;;;5.95;4.15;;;;;;;1.71;58.12;94563.66;4962424;28;20427;-76
2021/12/16 11:20:48;;;;;;;4.70;3.78;;;;;;;1.69;58.03;94553.38;4944014;28;20046;-75
2021/12/16 11:23:16;;;;;;;6.15;4.03;;;;;;;1.78;58.38;94562.44;4963333;28;20115;-75
2021/12/16 11:25:46;;;;;;;9.95;4.85;;;;;;;1.80;58.42;94543.84;4961524;28;20122;-75
2021/12/16 11:28:15;;;;;;;6.70;4.35;;;;;;;1.70;58.67;94551.56;4963365;28;20413;-75
2021/12/16 11:30:59;;;;;;;5.78;3.80;;;;;;;1.75;59.01;94562.13;4960584;28;20569;-75
2021/12/16 11:33:47;;;;;;;4.25;3.35;;;;;;;1.68;58.96;94565.69;4963143;28;20050;-75
2021/12/16 11:36:35;;;;;;;6.80;3.92;;;;;;;1.57;59.96;94565.81;4943832;28;20146;-75
2021/12/16 11:39:04;;;;;;;5.35;4.13;;;;;;;1.70;59.01;94575.16;4964097;28;20081;-75
2021/12/16 11:41:40;;;;;;;3.53;3.30;;;;;;;1.63;59.33;94565.63;4964340;28;20062;-75
2021/12/16 11:44:17;;;;;;;6.15;4.30;;;;;;;1.69;58.89;94563.88;4945572;28;20071;-75
2021/12/16 11:46:53;;;;;;;4.13;3.72;;;;;;;1.72;58.84;94573.13;4959652;28;20062;-75
2021/12/16 11:49:21;;;;;;;6.25;4.00;;;;;;;1.68;58.38;94568.31;4959631;28;20046;-74
2021/12/16 11:52:08;;;;;;;8.43;4.32;;;;;;;1.74;58.39;94565.78;4960831;28;20070;-75
2021/12/16 11:54:42;;;;;;;8.90;5.18;;;;;;;1.48;58.46;94547.03;4963841;28;20186;-75
2021/12/16 11:57:25;;;;;;;10.50;5.97;;;;;;;1.60;58.42;94568.72;4959511;28;20038;-75
2021/12/16 11:59:58;;;;;;;6.55;4.13;;;;;;;1.54;59.08;94563.63;4961382;28;20506;-75
2021/12/16 12:02:36;;;;;;;8.50;6.00;;;;;;;1.56;59.22;94565.00;4959731;28;20162;-74
2021/12/16 12:05:26;;;;;;;5.40;4.13;;;;;;;1.55;59.08;94567.84;4962608;28;20672;-75
2021/12/16 12:08:20;;;;;;;7.88;4.90;;;;;;;1.41;59.25;94535.91;4958221;28;20136;-75
2021/12/16 12:11:02;;;;;;;10.35;4.10;;;;;;;1.70;59.63;94543.69;4960631;28;20039;-75
2021/12/16 12:13:40;;;;;;;7.70;6.10;;;;;;;1.63;58.69;94539.41;4961962;28;20577;-74
2021/12/16 12:16:14;;;;;;;8.07;4.78;;;;;;;1.62;58.68;94558.78;4962085;28;20145;-75
2021/12/16 12:18:55;;;;;;;9.25;5.55;;;;;;;1.37;59.10;94542.69;4960020;28;20081;-74
2021/12/16 12:21:29;;;;;;;6.63;4.40;;;;;;;1.50;59.41;94559.91;4961219;28;20062;-75
2021/12/16 12:23:57;;;;;;;6.88;4.53;;;;;;;1.58;59.21;94562.91;4957708;28;20075;-74
2021/12/16 12:26:24;;;;;;;8.07;4.35;;;;;;;1.42;59.10;94536.72;4961452;28;20043;-75
2021/12/16 12:28:57;;;;;;;6.78;4.88;;;;;;;1.53;59.48;94557.59;4959376;28;20536;-74
2021/12/16 12:31:25;;;;;;;6.43;3.92;;;;;;;1.55;59.52;94550.31;4962162;28;20480;-75
2021/12/16 12:33:51;;;;;;;8.25;3.92;;;;;;;1.63;59.30;94556.97;4961369;28;20046;-75
2021/12/16 12:36:19;;;;;;;5.95;4.53;;;;;;;1.76;59.09;94563.72;4961857;28;20041;-74
2021/12/16 12:38:45;;;;;;;8.60;4.45;;;;;;;1.63;59.44;94549.88;4943050;28;20050;-74
2021/12/16 12:41:10;;;;;;;6.20;5.10;;;;;;;1.72;59.60;94560.00;4962566;28;20090;-74
2021/12/16 12:43:37;;;;;;;9.02;5.80;;;;;;;1.80;59.57;94576.13;4959915;28;20035;-74
2021/12/16 12:46:05;;;;;;;7.45;5.03;;;;;;;1.59;60.22;94582.88;4959394;28;20105;-74
2021/12/16 12:48:36;;;;;;;8.40;5.22;;;;;;;1.52;60.22;94569.09;4958247;28;20572;-75
2021/12/16 12:51:05;;;;;;;11.65;4.97;;;;;;;1.41;60.25;94554.28;4944419;28;20034;-75
2021/12/16 12:53:38;;;;;;;8.93;6.40;;;;;;;1.67;59.92;94577.22;4961978;28;20524;-74
2021/12/16 12:56:29;;;;;;;9.68;5.47;;;;;;;1.76;60.20;94574.22;4960795;28;20042;-74
2021/12/16 12:58:59;;;;;;;7.70;4.68;;;;;;;1.73;60.09;94579.91;4939419;28;20814;-75
2021/12/16 13:01:41;;;;;;;10.18;6.35;;;;;;;1.51;60.33;94538.72;4958016;28;20077;-75
2021/12/16 13:04:30;;;;;;;7.07;5.35;;;;;;;1.67;60.27;94563.31;4956638;28;20034;-75
2021/12/16 13:07:04;;;;;;;8.77;4.80;;;;;;;1.39;60.73;94543.22;4955622;28;20294;-75
2021/12/16 13:09:37;;;;;;;11.85;5.47;;;;;;;1.43;61.22;94556.63;4957300;28;20042;-75
2021/12/16 13:24:15;;;;;;;12.05;5.28;;;;;;;1.50;60.95;94552.84;4957014;28;20057;-75
2021/12/16 13:26:41;;;;;;;7.18;4.88;;;;;;;1.53;60.46;94531.38;4953030;28;20046;-75
2021/12/16 13:32:14;;;;;;;6.60;5.00;;;;;;;1.71;58.74;94545.28;4957196;28;20046;-75
2021/12/16 13:34:52;;;;;;;12.75;5.97;;;;;;;1.93;58.75;94564.53;4937921;28;20042;-75
2021/12/16 13:37:35;;;;;;;9.25;5.82;;;;;;;1.95;58.44;94557.22;4956457;28;20019;-76
2021/12/16 13:40:07;;;;;;;9.70;4.60;;;;;;;1.70;59.09;94562.84;4956744;28;20513;-75
2021/12/16 13:42:44;;;;;;;7.40;5.03;;;;;;;1.78;58.98;94570.31;4956827;28;20045;-75
2021/12/16 13:45:16;;;;;;;9.15;6.20;;;;;;;1.68;59.37;94562.28;4956778;28;20038;-75
2021/12/16 13:48:03;;;;;;;8.70;5.65;;;;;;;1.80;58.82;94562.22;4957334;28;20038;-76
2021/12/16 14:00:08;;;;;;;;;;;;;;;1.27;60.28;94573.16;4957765;28;20148;-75
2021/12/16 14:05:04;;;;;;;8.85;4.63;;;;;;;1.26;60.28;94574.97;4956266;28;20130;-76
2021/12/16 14:10:22;;;;;;;9.00;6.32;;;;;;;1.28;60.64;94575.53;4959086;28;20131;-75
2021/12/16 14:16:12;;;;;;;11.05;5.72;;;;;;;1.45;60.23;94578.97;4956823;28;20035;-75
2021/12/16 14:25:18;;;;;;;9.57;5.53;;;;;;;1.41;59.91;94590.97;4955530;28;20182;-74
2021/12/16 14:47:28;;;;;;;21.02;9.20;;;;;;;1.62;60.41;94589.44;4957897;28;20125;-75
2021/12/16 14:49:37;;;;;;;16.23;8.77;;;;;;;1.53;59.99;94594.31;4953534;28;20039;-75
2021/12/16 14:52:04;;;;;;;12.32;8.48;;;;;;;1.37;60.41;94595.09;4960240;28;20129;-75
2021/12/16 14:54:34;;;;;;;9.35;6.18;;;;;;;1.01;60.63;94572.72;4955774;28;20270;-75
2021/12/16 14:57:03;;;;;;;11.45;5.70;;;;;;;1.05;61.13;94592.16;4955311;28;20422;-75
2021/12/16 14:59:30;;;;;;;13.27;7.72;;;;;;;0.98;61.70;94569.78;4955045;28;20039;-75
2021/12/16 15:02:00;;;;;;;12.90;7.60;;;;;;;1.13;61.35;94575.28;4955753;28;20075;-75
2021/12/16 15:04:27;;;;;;;13.77;7.78;;;;;;;1.31;61.33;94603.91;4956559;28;20405;-75
2021/12/16 15:07:02;;;;;;;10.15;7.78;;;;;;;1.35;61.04;94599.78;4956906;28;20047;-74
2021/12/16 15:09:30;;;;;;;;;;;;;;;1.34;60.93;94600.78;4957267;28;20042;-74
2021/12/16 15:12:11;;;;;;;7.03;5.75;;;;;;;1.03;60.98;94570.66;4958157;28;19922;-74
2021/12/16 15:40:28;;;;;;;11.57;6.57;;;;;;;0.88;61.90;94611.50;4958024;28;20610;-73
2021/12/16 15:44:58;;;;;;;10.23;6.85;;;;;;;0.68;62.32;94583.88;4958060;28;20042;-74
2021/12/16 15:47:24;;;;;;;10.98;6.07;;;;;;;0.95;61.66;94620.00;4957655;28;20321;-76
2021/12/16 15:49:51;;;;;;;13.90;8.15;;;;;;;0.98;61.99;94627.41;4954804;28;20165;-76